Worland, WY

4:00 PM MST on December 27, 2014 (GMT -0700)
Thermopolis | Change Station
CLOSE
Current Station
Airport
Location: Thermopolis,
Elevation: 7300 ft
Nearby Weather Stations
Active Advisory: Special Statement

Elev 7300 ft 43.46 °N, 108.24 °W | Updated 25 minutes ago

Clear
Clear
10 °F
Feels Like -2 °F
N
9
Wind Variable Wind from SE
Gusts 3 mph

Today
High -- | Low -- °F
--% Chance of Precip.
Yesterday
High -- | Low -- °F
Precip. -- in
7:45 AM 4:40 PM
Waxing Crescent, 41% visible
Pressure 29.99 in
Visibility -9999.0 miles
Clouds
Windchill -2 °F
Dew Point 7 °F
Humidity 85%
Rainfall 0.00 in
Snow Depth Not available.
UV Not available.
Pollen .10 out of 12
Air Quality Not available.
Flu Activity Not available.
METAR KTBX 272235Z AUTO 13008KT M12/M14 A2999 RMK AO2 PWINO

More Conditions Fewer Conditions

Pressure 29.99 in
Visibility -9999.0 miles
Clouds
Windchill -2 °F
Dew Point 7 °F
Humidity 85%
Rainfall 0.00 in
Snow Depth Not available.
UV Not available.
Pollen .10 out of 12
Air Quality Not available.
Flu Activity Not available.
METAR KTBX 272235Z AUTO 13008KT M12/M14 A2999 RMK AO2 PWINO

More Conditions Fewer Conditions

10-Day Weather Forecast

Almanac

Astronomy

Dec. 27, 2014 Rise Set
Actual Time
Civil Twilight
Nautical Twilight
Astronomical Twilight
Moon
Length of Visible Light
Length of Day
Tomorrow will be .
, % of the Moon is Illuminated

Today's Extremes

State Highs State Lows

Community

WunderPhotos

Upload Photos

1,781,100 photos uploaded!

WunderBlogs® & News

Nearby

Air Quality

  Air Quality AQ Index Pollutant
Not available.

Snow Depth

Station Depth Elevation

Earthquake Activity

City Distance Mag. Time & Date
Minimum magnitude displayed is 2.5.

Coastal Water Temperatures

Place Temperature

Nearby Weather Stations